sensor_id;sensor_type;location;lat;lon;timestamp;noise_LAeq;noise_LA_min;noise_LA_max;noise_LA01;noise_LA95
58780;Laerm;45243;51.548;6.990;2022-08-30T00:00:19;38.30;36.37;41.52;;
58780;Laerm;45243;51.548;6.990;2022-08-30T00:03:06;37.97;35.94;45.75;;
58780;Laerm;45243;51.548;6.990;2022-08-30T00:05:33;37.66;35.91;39.76;;
58780;Laerm;45243;51.548;6.990;2022-08-30T00:07:58;37.86;36.10;41.65;;
58780;Laerm;45243;51.548;6.990;2022-08-30T00:10:25;37.85;35.89;43.97;;
58780;Laerm;45243;51.548;6.990;2022-08-30T00:12:53;37.81;35.83;46.75;;
58780;Laerm;45243;51.548;6.990;2022-08-30T00:15:18;37.59;35.94;41.85;;
58780;Laerm;45243;51.548;6.990;2022-08-30T00:17:45;37.62;36.13;43.36;;
58780;Laerm;45243;51.548;6.990;2022-08-30T00:20:14;37.65;35.91;40.67;;
58780;Laerm;45243;51.548;6.990;2022-08-30T00:22:40;37.66;36.01;40.12;;
58780;Laerm;45243;51.548;6.990;2022-08-30T00:25:07;37.83;36.13;40.46;;
58780;Laerm;45243;51.548;6.990;2022-08-30T00:27:33;37.83;36.16;42.14;;
58780;Laerm;45243;51.548;6.990;2022-08-30T00:29:58;37.52;36.16;42.76;;
58780;Laerm;45243;51.548;6.990;2022-08-30T00:32:24;37.50;36.01;38.96;;
58780;Laerm;45243;51.548;6.990;2022-08-30T00:34:50;37.75;36.26;40.75;;
58780;Laerm;45243;51.548;6.990;2022-08-30T00:37:16;37.68;36.12;40.29;;
58780;Laerm;45243;51.548;6.990;2022-08-30T00:39:43;37.45;35.81;39.27;;
58780;Laerm;45243;51.548;6.990;2022-08-30T00:42:09;37.83;36.03;40.96;;
58780;Laerm;45243;51.548;6.990;2022-08-30T00:44:34;37.74;35.88;45.51;;
58780;Laerm;45243;51.548;6.990;2022-08-30T00:47:00;37.93;36.33;42.23;;
58780;Laerm;45243;51.548;6.990;2022-08-30T00:49:27;37.63;36.06;42.09;;
58780;Laerm;45243;51.548;6.990;2022-08-30T00:51:53;37.72;36.08;42.14;;
58780;Laerm;45243;51.548;6.990;2022-08-30T00:54:18;37.75;36.09;45.07;;
58780;Laerm;45243;51.548;6.990;2022-08-30T00:56:45;37.57;35.86;40.48;;
58780;Laerm;45243;51.548;6.990;2022-08-30T00:59:11;37.37;36.02;41.56;;
58780;Laerm;45243;51.548;6.990;2022-08-30T01:01:36;37.62;35.77;41.56;;
58780;Laerm;45243;51.548;6.990;2022-08-30T01:04:03;37.62;35.50;40.62;;
58780;Laerm;45243;51.548;6.990;2022-08-30T01:06:30;37.60;35.93;41.28;;
58780;Laerm;45243;51.548;6.990;2022-08-30T01:08:59;37.69;35.89;40.07;;
58780;Laerm;45243;51.548;6.990;2022-08-30T01:11:25;37.58;36.12;43.40;;
58780;Laerm;45243;51.548;6.990;2022-08-30T01:13:52;37.59;36.10;40.14;;
58780;Laerm;45243;51.548;6.990;2022-08-30T01:16:20;37.58;35.71;40.04;;
58780;Laerm;45243;51.548;6.990;2022-08-30T01:18:46;37.63;36.15;40.91;;
58780;Laerm;45243;51.548;6.990;2022-08-30T01:21:20;37.73;36.21;41.58;;
58780;Laerm;45243;51.548;6.990;2022-08-30T01:23:49;37.74;36.05;39.49;;
58780;Laerm;45243;51.548;6.990;2022-08-30T01:26:18;37.61;36.03;41.32;;
58780;Laerm;45243;51.548;6.990;2022-08-30T01:28:46;37.83;35.92;44.53;;
58780;Laerm;45243;51.548;6.990;2022-08-30T01:31:13;37.77;36.06;46.63;;
58780;Laerm;45243;51.548;6.990;2022-08-30T01:33:39;37.73;36.00;42.75;;
58780;Laerm;45243;51.548;6.990;2022-08-30T01:36:07;37.98;35.94;43.43;;
58780;Laerm;45243;51.548;6.990;2022-08-30T01:38:53;37.85;36.18;40.47;;
58780;Laerm;45243;51.548;6.990;2022-08-30T01:41:27;37.80;36.25;40.73;;
58780;Laerm;45243;51.548;6.990;2022-08-30T01:43:56;37.61;36.02;41.12;;
58780;Laerm;45243;51.548;6.990;2022-08-30T01:46:26;37.87;36.18;42.63;;
58780;Laerm;45243;51.548;6.990;2022-08-30T01:48:52;37.74;36.16;44.45;;
58780;Laerm;45243;51.548;6.990;2022-08-30T01:51:19;37.92;36.28;42.82;;
58780;Laerm;45243;51.548;6.990;2022-08-30T01:53:45;37.76;35.96;48.51;;
58780;Laerm;45243;51.548;6.990;2022-08-30T01:56:11;37.90;36.26;43.15;;
58780;Laerm;45243;51.548;6.990;2022-08-30T01:58:37;37.88;36.17;44.45;;
58780;Laerm;45243;51.548;6.990;2022-08-30T02:01:05;37.67;36.00;40.82;;
58780;Laerm;45243;51.548;6.990;2022-08-30T02:03:32;37.73;36.11;40.53;;
58780;Laerm;45243;51.548;6.990;2022-08-30T02:06:03;37.80;36.12;48.15;;
58780;Laerm;45243;51.548;6.990;2022-08-30T02:08:29;38.18;36.36;42.15;;
58780;Laerm;45243;51.548;6.990;2022-08-30T02:10:54;38.05;36.52;42.65;;
58780;Laerm;45243;51.548;6.990;2022-08-30T02:13:19;37.78;36.01;42.45;;
58780;Laerm;45243;51.548;6.990;2022-08-30T02:15:45;37.95;36.32;41.81;;
58780;Laerm;45243;51.548;6.990;2022-08-30T02:18:11;38.03;36.22;46.21;;
58780;Laerm;45243;51.548;6.990;2022-08-30T02:20:38;38.22;36.49;44.83;;
58780;Laerm;45243;51.548;6.990;2022-08-30T02:23:03;38.15;36.29;46.83;;
58780;Laerm;45243;51.548;6.990;2022-08-30T02:25:29;38.37;36.16;47.59;;
58780;Laerm;45243;51.548;6.990;2022-08-30T02:27:54;38.37;36.62;44.66;;
58780;Laerm;45243;51.548;6.990;2022-08-30T02:30:19;38.24;36.56;45.06;;
58780;Laerm;45243;51.548;6.990;2022-08-30T02:32:45;38.55;36.53;46.15;;
58780;Laerm;45243;51.548;6.990;2022-08-30T02:35:10;38.55;36.53;43.58;;
58780;Laerm;45243;51.548;6.990;2022-08-30T02:37:35;38.52;36.50;43.17;;
58780;Laerm;45243;51.548;6.990;2022-08-30T02:40:01;38.94;36.65;54.21;;
58780;Laerm;45243;51.548;6.990;2022-08-30T02:42:26;38.46;36.23;45.69;;
58780;Laerm;45243;51.548;6.990;2022-08-30T02:44:51;38.37;36.36;42.55;;
58780;Laerm;45243;51.548;6.990;2022-08-30T02:47:17;38.56;36.57;43.01;;
58780;Laerm;45243;51.548;6.990;2022-08-30T02:49:42;38.60;36.58;42.00;;
58780;Laerm;45243;51.548;6.990;2022-08-30T02:52:07;38.38;36.86;46.41;;
58780;Laerm;45243;51.548;6.990;2022-08-30T02:54:33;38.77;36.67;45.77;;
58780;Laerm;45243;51.548;6.990;2022-08-30T02:56:59;38.97;37.11;47.77;;
58780;Laerm;45243;51.548;6.990;2022-08-30T02:59:28;38.94;37.01;46.45;;
58780;Laerm;45243;51.548;6.990;2022-08-30T03:01:54;39.05;36.91;48.28;;
58780;Laerm;45243;51.548;6.990;2022-08-30T03:04:20;39.09;36.86;46.64;;
58780;Laerm;45243;51.548;6.990;2022-08-30T03:06:45;39.55;37.17;45.24;;
58780;Laerm;45243;51.548;6.990;2022-08-30T03:09:10;39.64;37.10;47.27;;
58780;Laerm;45243;51.548;6.990;2022-08-30T03:11:36;39.90;37.51;48.94;;
58780;Laerm;45243;51.548;6.990;2022-08-30T03:14:02;39.42;37.35;48.31;;
58780;Laerm;45243;51.548;6.990;2022-08-30T03:16:27;39.81;37.57;49.90;;
58780;Laerm;45243;51.548;6.990;2022-08-30T03:18:53;39.63;37.48;53.45;;
58780;Laerm;45243;51.548;6.990;2022-08-30T03:21:18;39.68;37.35;46.26;;
58780;Laerm;45243;51.548;6.990;2022-08-30T03:23:44;40.10;37.69;46.80;;
58780;Laerm;45243;51.548;6.990;2022-08-30T03:26:10;40.30;37.18;50.12;;
58780;Laerm;45243;51.548;6.990;2022-08-30T03:28:39;40.51;37.85;47.40;;
58780;Laerm;45243;51.548;6.990;2022-08-30T03:31:05;40.92;38.01;50.23;;
58780;Laerm;45243;51.548;6.990;2022-08-30T03:33:30;40.47;38.21;50.66;;
58780;Laerm;45243;51.548;6.990;2022-08-30T03:35:55;40.42;38.05;48.07;;
58780;Laerm;45243;51.548;6.990;2022-08-30T03:38:21;40.45;38.02;51.68;;
58780;Laerm;45243;51.548;6.990;2022-08-30T03:40:46;40.09;37.72;45.79;;
58780;Laerm;45243;51.548;6.990;2022-08-30T03:43:12;40.10;38.27;44.29;;
58780;Laerm;45243;51.548;6.990;2022-08-30T03:45:38;39.81;37.68;48.06;;
58780;Laerm;45243;51.548;6.990;2022-08-30T03:48:03;39.85;37.89;44.45;;
58780;Laerm;45243;51.548;6.990;2022-08-30T03:50:29;39.92;37.78;45.76;;
58780;Laerm;45243;51.548;6.990;2022-08-30T03:52:56;40.13;37.98;51.51;;
58780;Laerm;45243;51.548;6.990;2022-08-30T03:55:22;40.00;37.67;50.12;;
58780;Laerm;45243;51.548;6.990;2022-08-30T03:57:47;40.66;37.95;47.79;;
58780;Laerm;45243;51.548;6.990;2022-08-30T04:00:15;41.29;38.15;49.73;;
58780;Laerm;45243;51.548;6.990;2022-08-30T04:02:41;39.78;37.70;45.98;;
58780;Laerm;45243;51.548;6.990;2022-08-30T04:05:08;40.46;38.14;46.29;;
58780;Laerm;45243;51.548;6.990;2022-08-30T04:07:33;39.60;37.59;43.95;;
58780;Laerm;45243;51.548;6.990;2022-08-30T04:09:59;40.07;37.96;46.57;;
58780;Laerm;45243;51.548;6.990;2022-08-30T04:12:25;40.17;37.75;50.88;;
58780;Laerm;45243;51.548;6.990;2022-08-30T04:14:51;40.38;38.23;48.93;;
58780;Laerm;45243;51.548;6.990;2022-08-30T04:17:16;41.03;38.42;50.73;;
58780;Laerm;45243;51.548;6.990;2022-08-30T04:19:42;40.26;38.07;61.64;;
58780;Laerm;45243;51.548;6.990;2022-08-30T04:22:07;40.79;38.20;49.05;;
58780;Laerm;45243;51.548;6.990;2022-08-30T04:24:33;40.39;38.15;46.96;;
58780;Laerm;45243;51.548;6.990;2022-08-30T04:26:58;40.44;38.11;45.44;;
58780;Laerm;45243;51.548;6.990;2022-08-30T04:29:24;40.22;38.09;51.85;;
58780;Laerm;45243;51.548;6.990;2022-08-30T04:31:49;41.18;38.34;55.55;;
58780;Laerm;45243;51.548;6.990;2022-08-30T04:34:15;40.60;38.00;55.59;;
58780;Laerm;45243;51.548;6.990;2022-08-30T04:36:40;40.64;38.23;56.86;;
58780;Laerm;45243;51.548;6.990;2022-08-30T04:39:06;44.77;38.18;67.38;;
58780;Laerm;45243;51.548;6.990;2022-08-30T04:41:31;40.57;38.52;47.04;;
58780;Laerm;45243;51.548;6.990;2022-08-30T04:43:57;40.41;37.99;45.87;;
58780;Laerm;45243;51.548;6.990;2022-08-30T04:46:27;40.33;38.05;46.26;;
58780;Laerm;45243;51.548;6.990;2022-08-30T04:48:52;40.39;37.71;47.26;;
58780;Laerm;45243;51.548;6.990;2022-08-30T04:51:17;40.22;37.85;48.86;;
58780;Laerm;45243;51.548;6.990;2022-08-30T04:53:43;40.74;37.95;49.25;;
58780;Laerm;45243;51.548;6.990;2022-08-30T04:56:11;40.40;38.10;45.44;;
58780;Laerm;45243;51.548;6.990;2022-08-30T04:58:40;40.16;37.93;43.78;;
58780;Laerm;45243;51.548;6.990;2022-08-30T05:01:11;40.23;37.99;47.24;;
58780;Laerm;45243;51.548;6.990;2022-08-30T05:03:37;40.30;38.22;48.20;;
58780;Laerm;45243;51.548;6.990;2022-08-30T05:06:02;40.15;37.71;47.19;;
58780;Laerm;45243;51.548;6.990;2022-08-30T05:08:27;40.36;38.26;49.77;;
58780;Laerm;45243;51.548;6.990;2022-08-30T05:10:53;40.45;38.65;50.81;;
58780;Laerm;45243;51.548;6.990;2022-08-30T05:13:19;40.40;38.35;46.25;;
58780;Laerm;45243;51.548;6.990;2022-08-30T05:15:45;40.33;38.55;46.55;;
58780;Laerm;45243;51.548;6.990;2022-08-30T05:18:12;40.51;38.48;47.24;;
58780;Laerm;45243;51.548;6.990;2022-08-30T05:20:39;40.44;38.30;43.53;;
58780;Laerm;45243;51.548;6.990;2022-08-30T05:23:05;40.31;38.35;44.67;;
58780;Laerm;45243;51.548;6.990;2022-08-30T05:25:35;40.57;38.47;48.02;;
58780;Laerm;45243;51.548;6.990;2022-08-30T05:28:00;40.39;37.97;48.64;;
58780;Laerm;45243;51.548;6.990;2022-08-30T05:30:27;40.79;38.63;48.40;;
58780;Laerm;45243;51.548;6.990;2022-08-30T05:32:53;40.61;38.21;47.86;;
58780;Laerm;45243;51.548;6.990;2022-08-30T05:35:19;40.44;38.21;51.03;;
58780;Laerm;45243;51.548;6.990;2022-08-30T05:37:45;40.60;38.38;48.66;;
58780;Laerm;45243;51.548;6.990;2022-08-30T05:40:12;41.46;38.09;51.85;;
58780;Laerm;45243;51.548;6.990;2022-08-30T05:42:38;41.45;37.56;51.61;;
58780;Laerm;45243;51.548;6.990;2022-08-30T05:45:06;40.21;37.67;48.98;;
58780;Laerm;45243;51.548;6.990;2022-08-30T05:47:31;40.02;37.45;54.02;;
58780;Laerm;45243;51.548;6.990;2022-08-30T05:49:56;39.85;37.95;46.65;;
58780;Laerm;45243;51.548;6.990;2022-08-30T05:52:22;40.99;37.63;51.43;;
58780;Laerm;45243;51.548;6.990;2022-08-30T05:54:52;41.60;38.28;50.95;;
58780;Laerm;45243;51.548;6.990;2022-08-30T05:57:18;40.21;37.86;46.81;;
58780;Laerm;45243;51.548;6.990;2022-08-30T05:59:44;45.56;38.40;51.49;;
58780;Laerm;45243;51.548;6.990;2022-08-30T06:02:10;41.74;37.20;51.48;;
58780;Laerm;45243;51.548;6.990;2022-08-30T06:04:35;39.37;37.33;48.55;;
58780;Laerm;45243;51.548;6.990;2022-08-30T06:07:01;39.31;37.44;43.92;;
58780;Laerm;45243;51.548;6.990;2022-08-30T06:09:27;41.46;37.45;55.26;;
58780;Laerm;45243;51.548;6.990;2022-08-30T06:11:52;41.85;37.38;50.68;;
58780;Laerm;45243;51.548;6.990;2022-08-30T06:14:17;41.93;37.82;53.02;;
58780;Laerm;45243;51.548;6.990;2022-08-30T06:16:43;41.14;37.59;51.82;;
58780;Laerm;45243;51.548;6.990;2022-08-30T06:19:10;39.25;37.03;51.68;;
58780;Laerm;45243;51.548;6.990;2022-08-30T06:21:36;39.35;37.15;51.15;;
58780;Laerm;45243;51.548;6.990;2022-08-30T06:24:04;38.75;36.81;51.83;;
58780;Laerm;45243;51.548;6.990;2022-08-30T06:26:30;39.34;36.78;51.99;;
58780;Laerm;45243;51.548;6.990;2022-08-30T06:28:56;40.09;36.75;51.93;;
58780;Laerm;45243;51.548;6.990;2022-08-30T06:31:23;43.67;37.52;52.88;;
58780;Laerm;45243;51.548;6.990;2022-08-30T06:33:49;40.22;36.13;55.58;;
58780;Laerm;45243;51.548;6.990;2022-08-30T06:36:18;38.82;36.83;45.63;;
58780;Laerm;45243;51.548;6.990;2022-08-30T06:38:45;39.36;37.00;51.94;;
58780;Laerm;45243;51.548;6.990;2022-08-30T06:41:14;39.93;37.00;51.59;;
58780;Laerm;45243;51.548;6.990;2022-08-30T06:43:40;42.51;37.08;64.27;;
58780;Laerm;45243;51.548;6.990;2022-08-30T06:46:10;40.99;37.42;51.96;;
58780;Laerm;45243;51.548;6.990;2022-08-30T06:48:35;39.41;37.12;53.76;;
58780;Laerm;45243;51.548;6.990;2022-08-30T06:51:00;43.42;37.03;50.89;;
58780;Laerm;45243;51.548;6.990;2022-08-30T06:53:26;42.79;36.61;57.31;;
58780;Laerm;45243;51.548;6.990;2022-08-30T06:55:55;39.87;36.72;48.74;;
58780;Laerm;45243;51.548;6.990;2022-08-30T06:58:22;39.11;36.68;48.67;;
58780;Laerm;45243;51.548;6.990;2022-08-30T07:00:47;38.98;36.64;47.52;;
58780;Laerm;45243;51.548;6.990;2022-08-30T07:03:12;40.32;36.85;50.34;;
58780;Laerm;45243;51.548;6.990;2022-08-30T07:05:38;39.36;36.60;48.60;;
58780;Laerm;45243;51.548;6.990;2022-08-30T07:08:03;41.68;37.23;52.90;;
58780;Laerm;45243;51.548;6.990;2022-08-30T07:10:29;40.68;37.05;48.67;;
58780;Laerm;45243;51.548;6.990;2022-08-30T07:12:55;39.70;37.05;48.98;;
58780;Laerm;45243;51.548;6.990;2022-08-30T07:15:20;39.18;37.10;42.98;;
58780;Laerm;45243;51.548;6.990;2022-08-30T07:18:01;39.17;37.22;43.36;;
58780;Laerm;45243;51.548;6.990;2022-08-30T07:20:45;38.93;37.12;44.26;;
58780;Laerm;45243;51.548;6.990;2022-08-30T07:23:11;39.21;36.69;46.05;;
58780;Laerm;45243;51.548;6.990;2022-08-30T07:25:38;39.02;37.03;48.37;;
58780;Laerm;45243;51.548;6.990;2022-08-30T07:28:04;38.92;36.51;43.56;;
58780;Laerm;45243;51.548;6.990;2022-08-30T07:30:30;38.85;36.91;43.46;;
58780;Laerm;45243;51.548;6.990;2022-08-30T07:33:03;38.88;36.67;46.70;;
58780;Laerm;45243;51.548;6.990;2022-08-30T07:35:48;39.06;37.00;48.45;;
58780;Laerm;45243;51.548;6.990;2022-08-30T07:38:18;39.49;37.08;47.34;;
58780;Laerm;45243;51.548;6.990;2022-08-30T07:40:43;39.62;37.08;45.74;;
58780;Laerm;45243;51.548;6.990;2022-08-30T07:43:09;39.16;36.83;52.77;;
58780;Laerm;45243;51.548;6.990;2022-08-30T07:45:38;41.47;37.09;54.22;;
58780;Laerm;45243;51.548;6.990;2022-08-30T07:48:05;41.53;36.76;55.80;;
58780;Laerm;45243;51.548;6.990;2022-08-30T07:50:35;40.80;36.72;58.70;;
58780;Laerm;45243;51.548;6.990;2022-08-30T07:53:00;41.52;36.73;56.04;;
58780;Laerm;45243;51.548;6.990;2022-08-30T07:55:26;41.45;37.02;57.52;;
58780;Laerm;45243;51.548;6.990;2022-08-30T07:57:51;38.99;36.77;42.74;;
58780;Laerm;45243;51.548;6.990;2022-08-30T08:00:17;39.90;37.04;46.07;;
58780;Laerm;45243;51.548;6.990;2022-08-30T08:02:42;38.84;36.79;51.97;;
58780;Laerm;45243;51.548;6.990;2022-08-30T08:05:40;39.46;37.19;45.37;;
58780;Laerm;45243;51.548;6.990;2022-08-30T08:08:11;40.13;37.19;56.62;;
58780;Laerm;45243;51.548;6.990;2022-08-30T08:10:54;39.73;36.86;46.34;;
58780;Laerm;45243;51.548;6.990;2022-08-30T08:13:19;39.99;36.69;45.66;;
58780;Laerm;45243;51.548;6.990;2022-08-30T08:15:45;40.34;36.75;45.86;;
58780;Laerm;45243;51.548;6.990;2022-08-30T08:18:10;40.45;36.69;45.93;;
58780;Laerm;45243;51.548;6.990;2022-08-30T08:20:36;38.40;36.60;44.01;;
58780;Laerm;45243;51.548;6.990;2022-08-30T08:23:02;39.20;36.80;45.20;;
58780;Laerm;45243;51.548;6.990;2022-08-30T08:25:29;38.96;36.75;45.92;;
58780;Laerm;45243;51.548;6.990;2022-08-30T08:27:54;38.82;36.82;45.98;;
58780;Laerm;45243;51.548;6.990;2022-08-30T08:30:21;38.80;36.88;45.94;;
58780;Laerm;45243;51.548;6.990;2022-08-30T08:32:47;39.96;37.35;48.67;;
58780;Laerm;45243;51.548;6.990;2022-08-30T08:35:14;39.70;37.25;49.61;;
58780;Laerm;45243;51.548;6.990;2022-08-30T08:37:40;41.01;37.61;54.84;;
58780;Laerm;45243;51.548;6.990;2022-08-30T08:40:07;40.39;37.22;48.24;;
58780;Laerm;45243;51.548;6.990;2022-08-30T08:48:26;39.91;37.53;47.54;;
58780;Laerm;45243;51.548;6.990;2022-08-30T08:50:53;38.68;36.77;42.49;;
58780;Laerm;45243;51.548;6.990;2022-08-30T08:53:37;39.89;37.69;44.51;;
58780;Laerm;45243;51.548;6.990;2022-08-30T08:56:08;39.53;37.25;43.07;;
58780;Laerm;45243;51.548;6.990;2022-08-30T08:58:47;39.94;37.33;48.87;;
58780;Laerm;45243;51.548;6.990;2022-08-30T09:01:17;39.57;37.43;43.04;;
58780;Laerm;45243;51.548;6.990;2022-08-30T09:03:44;39.63;37.43;42.02;;
58780;Laerm;45243;51.548;6.990;2022-08-30T09:09:08;38.65;36.07;48.61;;
58780;Laerm;45243;51.548;6.990;2022-08-30T09:11:35;38.73;36.38;45.73;;
58780;Laerm;45243;51.548;6.990;2022-08-30T09:14:02;39.17;37.14;48.28;;
58780;Laerm;45243;51.548;6.990;2022-08-30T09:16:57;39.36;36.77;48.70;;
58780;Laerm;45243;51.548;6.990;2022-08-30T09:22:20;39.76;36.33;48.71;;
58780;Laerm;45243;51.548;6.990;2022-08-30T09:24:49;39.78;36.57;55.36;;
58780;Laerm;45243;51.548;6.990;2022-08-30T09:27:41;41.50;37.43;57.03;;
58780;Laerm;45243;51.548;6.990;2022-08-30T09:30:28;46.19;40.06;62.32;;
58780;Laerm;45243;51.548;6.990;2022-08-30T09:32:58;39.30;37.04;46.09;;
58780;Laerm;45243;51.548;6.990;2022-08-30T09:35:43;38.32;36.24;42.51;;
58780;Laerm;45243;51.548;6.990;2022-08-30T09:38:16;39.05;36.47;52.71;;
58780;Laerm;45243;51.548;6.990;2022-08-30T09:40:48;42.68;36.63;54.64;;
58780;Laerm;45243;51.548;6.990;2022-08-30T09:45:48;38.89;36.62;44.63;;
58780;Laerm;45243;51.548;6.990;2022-08-30T10:02:38;41.40;36.96;51.49;;
58780;Laerm;45243;51.548;6.990;2022-08-30T10:05:21;39.78;36.83;50.84;;
58780;Laerm;45243;51.548;6.990;2022-08-30T10:08:01;41.06;38.44;46.14;;
58780;Laerm;45243;51.548;6.990;2022-08-30T10:10:39;39.61;36.95;47.88;;
58780;Laerm;45243;51.548;6.990;2022-08-30T10:13:31;40.56;38.41;48.46;;
58780;Laerm;45243;51.548;6.990;2022-08-30T10:16:14;39.93;36.78;46.74;;
58780;Laerm;45243;51.548;6.990;2022-08-30T10:21:40;39.69;36.38;54.10;;
58780;Laerm;45243;51.548;6.990;2022-08-30T10:24:34;40.26;37.17;51.47;;
58780;Laerm;45243;51.548;6.990;2022-08-30T10:27:09;39.91;36.91;50.14;;
58780;Laerm;45243;51.548;6.990;2022-08-30T10:29:51;40.88;37.48;47.59;;
58780;Laerm;45243;51.548;6.990;2022-08-30T10:32:54;41.29;37.43;50.15;;
58780;Laerm;45243;51.548;6.990;2022-08-30T10:35:27;42.80;39.55;53.87;;
58780;Laerm;45243;51.548;6.990;2022-08-30T10:38:01;40.93;37.56;53.81;;
58780;Laerm;45243;51.548;6.990;2022-08-30T10:40:34;41.68;37.55;61.41;;
58780;Laerm;45243;51.548;6.990;2022-08-30T10:45:55;40.23;37.15;46.15;;
58780;Laerm;45243;51.548;6.990;2022-08-30T10:48:27;39.60;37.40;44.40;;
58780;Laerm;45243;51.548;6.990;2022-08-30T10:50:57;39.59;37.26;50.92;;
58780;Laerm;45243;51.548;6.990;2022-08-30T10:56:29;40.54;37.66;53.18;;
58780;Laerm;45243;51.548;6.990;2022-08-30T10:58:56;43.02;38.39;58.71;;
58780;Laerm;45243;51.548;6.990;2022-08-30T11:16:05;42.06;37.63;64.25;;
58780;Laerm;45243;51.548;6.990;2022-08-30T11:18:46;40.75;37.35;47.93;;
58780;Laerm;45243;51.548;6.990;2022-08-30T11:21:32;52.47;37.35;69.27;;
58780;Laerm;45243;51.548;6.990;2022-08-30T11:24:21;40.27;36.98;45.82;;
58780;Laerm;45243;51.548;6.990;2022-08-30T11:31:50;39.83;36.56;51.52;;
58780;Laerm;45243;51.548;6.990;2022-08-30T11:37:39;40.09;37.27;46.22;;
58780;Laerm;45243;51.548;6.990;2022-08-30T11:42:37;40.29;37.19;51.28;;
58780;Laerm;45243;51.548;6.990;2022-08-30T11:47:50;38.42;35.67;48.41;;
58780;Laerm;45243;51.548;6.990;2022-08-30T11:50:52;40.15;36.35;45.99;;
58780;Laerm;45243;51.548;6.990;2022-08-30T11:53:44;41.87;36.68;51.98;;
58780;Laerm;45243;51.548;6.990;2022-08-30T11:56:59;40.47;38.16;45.19;;
58780;Laerm;45243;51.548;6.990;2022-08-30T11:59:46;39.03;36.56;46.30;;
58780;Laerm;45243;51.548;6.990;2022-08-30T12:02:52;39.92;36.87;46.92;;
58780;Laerm;45243;51.548;6.990;2022-08-30T12:10:50;42.19;36.70;54.47;;
58780;Laerm;45243;51.548;6.990;2022-08-30T12:16:20;52.84;37.15;70.44;;
58780;Laerm;45243;51.548;6.990;2022-08-30T12:24:03;41.45;38.58;52.94;;
58780;Laerm;45243;51.548;6.990;2022-08-30T12:26:37;41.97;37.30;54.26;;
58780;Laerm;45243;51.548;6.990;2022-08-30T12:29:25;40.16;37.90;48.71;;
58780;Laerm;45243;51.548;6.990;2022-08-30T12:34:34;38.63;35.49;48.86;;
58780;Laerm;45243;51.548;6.990;2022-08-30T12:39:35;38.54;36.11;43.47;;
58780;Laerm;45243;51.548;6.990;2022-08-30T12:42:23;38.49;35.45;42.71;;
58780;Laerm;45243;51.548;6.990;2022-08-30T12:44:51;39.59;36.88;50.56;;
58780;Laerm;45243;51.548;6.990;2022-08-30T12:47:24;40.96;37.03;46.10;;
58780;Laerm;45243;51.548;6.990;2022-08-30T12:49:53;38.42;36.04;45.80;;
58780;Laerm;45243;51.548;6.990;2022-08-30T12:54:51;39.88;36.32;52.22;;
58780;Laerm;45243;51.548;6.990;2022-08-30T12:57:57;39.51;36.38;45.48;;
58780;Laerm;45243;51.548;6.990;2022-08-30T13:00:34;39.61;37.18;49.17;;
58780;Laerm;45243;51.548;6.990;2022-08-30T13:05:52;39.70;36.16;46.30;;
58780;Laerm;45243;51.548;6.990;2022-08-30T13:08:34;39.10;36.42;49.34;;
58780;Laerm;45243;51.548;6.990;2022-08-30T13:11:04;39.42;36.40;44.19;;
58780;Laerm;45243;51.548;6.990;2022-08-30T13:13:48;40.78;36.97;50.05;;
58780;Laerm;45243;51.548;6.990;2022-08-30T13:18:41;41.72;36.96;50.56;;
58780;Laerm;45243;51.548;6.990;2022-08-30T13:21:31;40.19;36.79;47.99;;
58780;Laerm;45243;51.548;6.990;2022-08-30T13:23:59;39.34;36.69;42.88;;
58780;Laerm;45243;51.548;6.990;2022-08-30T13:26:26;39.50;36.67;43.81;;
58780;Laerm;45243;51.548;6.990;2022-08-30T13:28:57;40.55;36.41;49.62;;
58780;Laerm;45243;51.548;6.990;2022-08-30T13:31:24;42.19;38.42;48.61;;
58780;Laerm;45243;51.548;6.990;2022-08-30T13:33:50;40.79;37.93;48.28;;
58780;Laerm;45243;51.548;6.990;2022-08-30T13:36:18;40.72;37.98;52.39;;
58780;Laerm;45243;51.548;6.990;2022-08-30T13:38:44;40.71;37.23;44.79;;
58780;Laerm;45243;51.548;6.990;2022-08-30T13:41:09;40.58;37.34;47.46;;
58780;Laerm;45243;51.548;6.990;2022-08-30T13:43:35;42.87;37.37;56.37;;
58780;Laerm;45243;51.548;6.990;2022-08-30T13:46:00;40.65;37.53;44.06;;
58780;Laerm;45243;51.548;6.990;2022-08-30T13:48:26;39.58;37.22;46.73;;
58780;Laerm;45243;51.548;6.990;2022-08-30T13:50:51;39.41;35.96;51.14;;
58780;Laerm;45243;51.548;6.990;2022-08-30T13:53:18;45.30;38.03;56.59;;
58780;Laerm;45243;51.548;6.990;2022-08-30T13:55:43;39.96;36.54;54.37;;
58780;Laerm;45243;51.548;6.990;2022-08-30T13:58:09;38.09;35.98;42.00;;
58780;Laerm;45243;51.548;6.990;2022-08-30T14:00:35;38.54;36.15;45.57;;
58780;Laerm;45243;51.548;6.990;2022-08-30T14:03:01;40.33;37.76;44.31;;
58780;Laerm;45243;51.548;6.990;2022-08-30T14:05:30;40.50;37.66;44.36;;
58780;Laerm;45243;51.548;6.990;2022-08-30T14:07:56;41.42;37.10;49.43;;
58780;Laerm;45243;51.548;6.990;2022-08-30T14:10:27;40.09;37.07;44.55;;
58780;Laerm;45243;51.548;6.990;2022-08-30T14:12:52;39.57;36.50;47.04;;
58780;Laerm;45243;51.548;6.990;2022-08-30T14:15:18;41.82;36.28;52.59;;
58780;Laerm;45243;51.548;6.990;2022-08-30T14:17:44;40.08;37.42;46.08;;
58780;Laerm;45243;51.548;6.990;2022-08-30T14:20:10;40.82;37.17;48.12;;
58780;Laerm;45243;51.548;6.990;2022-08-30T14:22:36;42.22;37.65;52.09;;
58780;Laerm;45243;51.548;6.990;2022-08-30T14:25:01;42.41;37.96;57.52;;
58780;Laerm;45243;51.548;6.990;2022-08-30T14:27:27;41.46;38.08;45.75;;
58780;Laerm;45243;51.548;6.990;2022-08-30T14:29:53;40.23;37.00;47.77;;
58780;Laerm;45243;51.548;6.990;2022-08-30T14:32:18;40.57;37.70;45.71;;
58780;Laerm;45243;51.548;6.990;2022-08-30T14:34:43;40.39;37.67;51.45;;
58780;Laerm;45243;51.548;6.990;2022-08-30T14:37:09;39.41;36.68;43.60;;
58780;Laerm;45243;51.548;6.990;2022-08-30T14:39:35;40.34;37.09;55.30;;
58780;Laerm;45243;51.548;6.990;2022-08-30T14:42:00;40.92;38.42;49.38;;
58780;Laerm;45243;51.548;6.990;2022-08-30T14:44:26;40.82;37.53;55.03;;
58780;Laerm;45243;51.548;6.990;2022-08-30T14:46:51;40.18;37.64;42.88;;
58780;Laerm;45243;51.548;6.990;2022-08-30T14:49:17;40.95;37.27;44.28;;
58780;Laerm;45243;51.548;6.990;2022-08-30T14:51:43;42.89;39.44;49.30;;
58780;Laerm;45243;51.548;6.990;2022-08-30T14:54:10;41.83;38.21;53.57;;
58780;Laerm;45243;51.548;6.990;2022-08-30T14:56:38;42.12;37.44;58.17;;
58780;Laerm;45243;51.548;6.990;2022-08-30T14:59:04;39.52;36.83;44.25;;
58780;Laerm;45243;51.548;6.990;2022-08-30T15:01:30;48.28;36.95;67.26;;
58780;Laerm;45243;51.548;6.990;2022-08-30T15:03:56;48.48;37.15;65.07;;
58780;Laerm;45243;51.548;6.990;2022-08-30T15:06:22;40.08;37.01;50.40;;
58780;Laerm;45243;51.548;6.990;2022-08-30T15:08:47;39.54;36.73;44.84;;
58780;Laerm;45243;51.548;6.990;2022-08-30T15:11:15;40.54;37.24;48.92;;
58780;Laerm;45243;51.548;6.990;2022-08-30T15:13:41;39.73;36.48;49.67;;
58780;Laerm;45243;51.548;6.990;2022-08-30T15:16:20;39.90;37.20;46.16;;
58780;Laerm;45243;51.548;6.990;2022-08-30T15:18:46;39.63;36.23;47.07;;
58780;Laerm;45243;51.548;6.990;2022-08-30T15:21:12;40.05;36.77;46.30;;
58780;Laerm;45243;51.548;6.990;2022-08-30T15:23:38;38.37;35.38;43.91;;
58780;Laerm;45243;51.548;6.990;2022-08-30T15:26:04;38.98;35.90;54.91;;